الصفحة الرئيسية
METAR-TAF:

METAR-TAF

مطار :

Telluride Regional Airport

Telluride, كولورادو, الولايات المتحدة

دائرة عرض: 37-57-14N, خط طول: 107-54-31W, ارتفاع: 2767 متر

مراقبة الطقس الحالي

تاريخ ووقت الإصدار 10 دقيقة قبل الساعة 22:15UTC
رياح هادئة
درجة الحرارة 19°درجة مئوية
الرطوبة 19%
ضغط 1030 hPa
الرؤية: 16.1 كم
غيوم مفككة على ارتفاع 10000 قدم

METAR: KTEX 222215Z AUTO 00000KT 10SM BKN100 19/M05 A3041 RMK AO2

زمن: 16:25 (22:25 UTC)

توقعات

تاريخ ووقت الإصدار 4ساعات و 54 دقيقة قبل الساعة 17:31UTC
التوقعات صالحة من22 الساعة 18 UTC إلى 23 الساعة 18 UTC
ريح 6 عقدة من الغرب/الجنوب الغربي
الرؤية: 10 كم
غيوم قليلة على ارتفاع 14000 قدم
من 22 الساعة 2100 UTC
ريح 7 عقدة من الغرب تتزايد حتى 14 عقدة
الرؤية: 10 كم
غيوم قليلة على ارتفاع 12000 قدم
من 23 الساعة 0400 UTC
ريح 5 عقدة من الجنوب الشرقي
الرؤية: 10 كم
غيوم قليلة على ارتفاع 25000 قدم
من 23 الساعة 1600 UTC
ريح 6 عقدة من الجنوب الغربي
الرؤية: 10 كم
غيوم متفرقة على ارتفاع 25000 قدم

TAF: KTEX 221731Z 2218/2318 25006KT P6SM FEW140 FM222100 26007G14KT P6SM FEW120 FM230400 14005KT P6SM FEW250 FM231600 22006KT P6SM SCT250

أرصاد الطقس والتوقعات من أكثر من 4000 مطار (تقارير الطقس للمطار METAR والتنبؤ بالطقس بالمطارTAF).

المحطات المتاحة هي النقط الصفراء والحمراء على الخريطة.

حرك المؤشر فوق النقطة لمعرفة اسم المحطة.

ثم انقر لمعرفة أرصاد وتوقعات الطقس.

لتغيير الخارطة: اضغط على الأزرار الخضراء مع رمز الصليب الأسود للتكبير. على الزر الأخضر مع شرطة للتصغير، أو على الأسهم الخضراء للخرائط المجاورة.


METAR-TAF: